createdAt,value
2023-05-05T00:01:34.102Z,51.20
2023-05-05T00:04:01.450Z,51.10
2023-05-05T00:06:28.961Z,51.00
2023-05-05T00:08:56.348Z,50.80
2023-05-05T00:11:23.739Z,50.60
2023-05-05T00:13:51.542Z,50.60
2023-05-05T00:16:18.914Z,50.50
2023-05-05T00:18:46.282Z,50.60
2023-05-05T00:21:13.469Z,50.70
2023-05-05T00:23:40.960Z,51.10
2023-05-05T00:26:11.105Z,51.60
2023-05-05T00:28:39.070Z,51.60
2023-05-05T00:31:08.908Z,51.80
2023-05-05T00:33:36.576Z,52.10
2023-05-05T00:36:04.496Z,52.20
2023-05-05T00:38:31.745Z,52.10
2023-05-05T00:40:59.041Z,51.90
2023-05-05T00:43:27.770Z,52.00
2023-05-05T00:46:01.962Z,52.10
2023-05-05T00:48:30.714Z,52.70
2023-05-05T00:50:58.966Z,53.20
2023-05-05T00:53:27.304Z,54.70
2023-05-05T00:55:54.647Z,56.10
2023-05-05T00:58:22.138Z,57.30
2023-05-05T01:00:50.502Z,57.40
2023-05-05T01:03:17.872Z,59.10
2023-05-05T01:06:06.267Z,58.40
2023-05-05T01:09:05.441Z,60.00
2023-05-05T01:12:01.930Z,59.50
2023-05-05T01:14:43.242Z,59.90
2023-05-05T01:17:24.418Z,60.20
2023-05-05T01:20:20.537Z,60.10
2023-05-05T01:22:53.063Z,60.30
2023-05-05T01:25:43.843Z,60.40
2023-05-05T01:28:29.853Z,60.30
2023-05-05T01:31:08.892Z,60.30
2023-05-05T01:33:52.788Z,60.30
2023-05-05T01:36:31.555Z,60.30
2023-05-05T01:39:04.415Z,60.40
2023-05-05T01:41:45.455Z,60.50
2023-05-05T01:44:15.437Z,60.60
2023-05-05T01:46:42.673Z,60.70
2023-05-05T01:49:11.568Z,60.60
2023-05-05T01:51:41.358Z,60.60
2023-05-05T01:54:09.469Z,60.70
2023-05-05T01:56:40.158Z,60.70
2023-05-05T01:59:09.973Z,60.60
2023-05-05T02:01:41.627Z,60.60
2023-05-05T02:04:09.949Z,60.60
2023-05-05T02:06:39.987Z,60.70
2023-05-05T02:09:11.763Z,60.60
2023-05-05T02:11:40.246Z,61.10
2023-05-05T02:14:09.215Z,60.90
2023-05-05T02:16:41.149Z,61.10
2023-05-05T02:19:09.381Z,61.60
2023-05-05T02:21:37.524Z,61.50
2023-05-05T02:24:07.880Z,61.60
2023-05-05T02:26:39.119Z,61.60
2023-05-05T02:29:10.720Z,61.80
2023-05-05T02:31:45.380Z,62.00
2023-05-05T02:34:18.606Z,62.30
2023-05-05T02:36:47.593Z,62.60
2023-05-05T02:39:27.830Z,63.30
2023-05-05T02:41:58.076Z,63.80
2023-05-05T02:44:29.006Z,65.00
2023-05-05T02:46:58.900Z,64.50
2023-05-05T02:49:26.229Z,64.50
2023-05-05T02:51:58.735Z,64.90
2023-05-05T02:54:32.521Z,64.90
2023-05-05T02:57:01.505Z,65.10
2023-05-05T02:59:37.628Z,65.30
2023-05-05T03:02:26.193Z,65.30
2023-05-05T03:05:06.512Z,65.20
2023-05-05T03:08:09.728Z,65.50
2023-05-05T03:10:47.877Z,66.00
2023-05-05T03:13:18.547Z,65.90
2023-05-05T03:15:49.310Z,66.10
2023-05-05T03:18:21.586Z,66.10
2023-05-05T03:20:55.625Z,66.60
2023-05-05T03:23:23.208Z,66.60
2023-05-05T03:25:55.590Z,66.70
2023-05-05T03:28:43.038Z,67.00
2023-05-05T03:31:18.669Z,67.60
2023-05-05T03:33:50.429Z,67.40
2023-05-05T03:36:20.181Z,67.30
2023-05-05T03:38:47.785Z,67.20
2023-05-05T03:41:15.104Z,67.40
2023-05-05T03:43:42.414Z,67.40
2023-05-05T03:46:10.366Z,67.80
2023-05-05T03:48:37.955Z,67.90
2023-05-05T03:51:05.289Z,67.80
2023-05-05T03:53:34.883Z,67.70
2023-05-05T03:56:05.839Z,67.80
2023-05-05T03:58:33.128Z,67.80
2023-05-05T04:01:00.498Z,68.10
2023-05-05T04:03:27.842Z,68.10
2023-05-05T04:05:55.194Z,68.40
2023-05-05T04:08:22.928Z,68.80
2023-05-05T04:10:50.997Z,69.30
2023-05-05T04:13:18.491Z,69.10
2023-05-05T04:15:46.434Z,69.10
2023-05-05T04:18:14.841Z,69.00
2023-05-05T04:20:42.146Z,68.90
2023-05-05T04:23:10.326Z,69.10
2023-05-05T04:25:37.598Z,69.20
2023-05-05T04:28:05.240Z,69.20
2023-05-05T04:30:32.977Z,69.20
2023-05-05T04:33:00.341Z,69.20
2023-05-05T04:35:27.854Z,69.20
2023-05-05T04:37:55.530Z,69.20
2023-05-05T04:40:23.095Z,69.30
2023-05-05T04:42:50.507Z,69.10
2023-05-05T04:45:17.824Z,69.20
2023-05-05T04:47:45.317Z,69.10
2023-05-05T04:50:13.759Z,69.20
2023-05-05T04:52:41.073Z,69.10
2023-05-05T04:55:09.415Z,69.20
2023-05-05T04:57:36.870Z,69.20
2023-05-05T05:00:05.423Z,69.00
2023-05-05T05:02:33.155Z,69.10
2023-05-05T05:05:00.491Z,69.40
2023-05-05T05:07:27.729Z,69.30
2023-05-05T05:09:55.103Z,69.40
2023-05-05T05:12:22.387Z,69.50
2023-05-05T05:14:51.818Z,69.80
2023-05-05T05:17:20.902Z,69.90
2023-05-05T05:19:48.083Z,69.60
2023-05-05T05:22:15.335Z,69.50
2023-05-05T05:24:44.083Z,69.30
2023-05-05T05:27:12.328Z,69.10
2023-05-05T05:29:43.516Z,68.90
2023-05-05T05:32:11.200Z,68.50
2023-05-05T05:34:38.782Z,68.30
2023-05-05T05:37:08.126Z,68.30
2023-05-05T05:39:35.437Z,68.10
2023-05-05T05:42:03.588Z,68.00
2023-05-05T05:44:31.186Z,67.80
2023-05-05T05:46:59.202Z,67.60
2023-05-05T05:49:27.334Z,67.60
2023-05-05T05:51:56.069Z,67.70
2023-05-05T05:54:23.625Z,67.40
2023-05-05T05:56:51.185Z,67.30
2023-05-05T05:59:18.409Z,67.20
2023-05-05T06:01:46.119Z,67.00
2023-05-05T06:04:13.557Z,66.70
2023-05-05T06:06:41.046Z,66.70
2023-05-05T06:09:08.258Z,66.70
2023-05-05T06:11:36.995Z,66.40
2023-05-05T06:14:04.252Z,66.10
2023-05-05T06:16:31.679Z,66.10
2023-05-05T06:19:02.366Z,66.00
2023-05-05T06:21:30.513Z,65.90
2023-05-05T06:23:57.717Z,65.70
2023-05-05T06:26:24.958Z,65.50
2023-05-05T06:28:52.151Z,65.40
2023-05-05T06:31:19.405Z,65.00
2023-05-05T06:33:46.656Z,64.80
2023-05-05T06:36:14.197Z,64.70
2023-05-05T06:38:41.433Z,64.30
2023-05-05T06:41:08.650Z,63.50
2023-05-05T06:43:35.957Z,63.00
2023-05-05T06:46:07.768Z,62.50
2023-05-05T06:48:34.999Z,61.80
2023-05-05T06:51:03.035Z,61.40
2023-05-05T06:53:30.375Z,61.40
2023-05-05T06:55:57.648Z,61.40
2023-05-05T06:58:25.192Z,61.10
2023-05-05T07:00:52.565Z,61.00
2023-05-05T07:03:19.982Z,60.70
2023-05-05T07:05:47.527Z,60.70
2023-05-05T07:08:14.759Z,60.70
2023-05-05T07:10:42.162Z,60.70
2023-05-05T07:13:09.660Z,60.30
2023-05-05T07:15:36.935Z,60.00
2023-05-05T07:18:04.508Z,59.70
2023-05-05T07:20:31.846Z,59.20
2023-05-05T07:22:59.060Z,58.90
2023-05-05T07:25:26.712Z,58.30
2023-05-05T07:27:54.000Z,58.20
2023-05-05T07:30:21.536Z,58.10
2023-05-05T07:32:49.510Z,58.60
2023-05-05T07:35:16.832Z,57.40
2023-05-05T07:37:47.016Z,57.50
2023-05-05T07:40:14.271Z,56.80
2023-05-05T07:42:41.567Z,56.60
2023-05-05T07:45:09.203Z,55.20
2023-05-05T07:47:36.460Z,55.20
2023-05-05T07:50:04.082Z,54.70
2023-05-05T07:52:45.039Z,54.10
2023-05-05T07:55:15.474Z,53.10
2023-05-05T07:57:42.704Z,51.20
2023-05-05T08:00:10.775Z,49.70
2023-05-05T08:02:41.646Z,49.10
2023-05-05T08:05:09.403Z,48.60
2023-05-05T08:07:40.974Z,48.60
2023-05-05T08:10:10.561Z,47.50
2023-05-05T08:12:38.047Z,46.10
2023-05-05T08:15:06.116Z,45.20
2023-05-05T08:17:48.028Z,44.60
2023-05-05T08:20:16.478Z,44.10
2023-05-05T08:22:43.759Z,44.20
2023-05-05T08:25:12.893Z,43.30
2023-05-05T08:27:42.039Z,42.50
2023-05-05T08:30:10.827Z,42.40
2023-05-05T08:32:41.224Z,42.20
2023-05-05T08:35:09.112Z,42.50
2023-05-05T08:37:36.637Z,42.40
2023-05-05T08:40:04.747Z,42.20
2023-05-05T08:42:37.031Z,41.60
2023-05-05T08:45:07.583Z,41.40
2023-05-05T08:47:39.017Z,40.40
2023-05-05T08:50:07.899Z,40.10
2023-05-05T08:52:45.589Z,39.10
2023-05-05T08:55:25.537Z,38.90
2023-05-05T08:58:02.871Z,38.40
2023-05-05T09:00:31.187Z,37.70
2023-05-05T09:02:59.938Z,37.20
2023-05-05T09:05:27.481Z,36.20
2023-05-05T09:07:54.758Z,35.10
2023-05-05T09:10:22.109Z,35.40
2023-05-05T09:12:51.274Z,35.80
2023-05-05T09:15:18.844Z,36.30
2023-05-05T09:17:47.248Z,37.10
2023-05-05T09:20:15.037Z,37.50
2023-05-05T09:22:43.764Z,38.20
2023-05-05T09:25:16.491Z,38.90
2023-05-05T09:27:46.592Z,39.70
2023-05-05T09:30:18.362Z,40.20
2023-05-05T09:32:51.124Z,40.50
2023-05-05T09:35:20.030Z,41.90
2023-05-05T09:37:47.664Z,40.80
2023-05-05T09:40:16.653Z,40.30
2023-05-05T09:42:44.944Z,40.00
2023-05-05T09:45:18.026Z,40.10
2023-05-05T09:47:46.854Z,40.60
2023-05-05T09:50:24.107Z,40.60
2023-05-05T09:53:02.370Z,40.30
2023-05-05T09:55:31.360Z,40.40
2023-05-05T09:58:20.765Z,40.70
2023-05-05T10:00:48.100Z,41.00
2023-05-05T10:03:16.097Z,42.20
2023-05-05T10:05:51.923Z,42.00
2023-05-05T10:08:21.241Z,42.30
2023-05-05T10:10:53.906Z,42.70
2023-05-05T10:13:23.839Z,43.40
2023-05-05T10:15:56.684Z,43.80
2023-05-05T10:18:26.997Z,44.30
2023-05-05T10:21:02.152Z,45.20
2023-05-05T10:23:40.325Z,46.30
2023-05-05T10:26:11.294Z,47.60
2023-05-05T10:28:45.081Z,49.20
2023-05-05T10:31:39.712Z,51.00
2023-05-05T10:34:10.527Z,52.90
2023-05-05T10:36:38.566Z,54.10
2023-05-05T10:39:09.509Z,54.50
2023-05-05T10:41:37.706Z,55.00
2023-05-05T10:44:05.930Z,55.10
2023-05-05T10:49:34.607Z,54.90
2023-05-05T10:52:26.070Z,56.70
2023-05-05T10:55:05.021Z,56.70
2023-05-05T10:57:35.375Z,56.30
2023-05-05T11:00:03.164Z,56.40
2023-05-05T11:02:31.354Z,57.20
2023-05-05T11:05:13.529Z,58.00
2023-05-05T11:07:42.329Z,58.20
2023-05-05T11:10:12.115Z,58.20
2023-05-05T11:13:01.909Z,58.10
2023-05-05T11:15:29.452Z,58.40
2023-05-05T11:18:04.878Z,58.10
2023-05-05T11:20:37.638Z,58.40
2023-05-05T11:23:05.282Z,58.60
2023-05-05T11:25:36.455Z,58.80
2023-05-05T11:28:08.721Z,59.30
2023-05-05T11:30:57.457Z,60.10
2023-05-05T11:33:30.199Z,60.10
2023-05-05T11:36:06.681Z,60.90
2023-05-05T11:38:59.589Z,61.60
2023-05-05T11:41:33.190Z,61.70
2023-05-05T11:44:14.482Z,63.10
2023-05-05T11:46:54.509Z,64.90
2023-05-05T11:49:28.019Z,67.00
2023-05-05T11:52:05.238Z,68.40
2023-05-05T11:54:34.872Z,69.90
2023-05-05T11:57:07.500Z,71.20
2023-05-05T11:59:39.052Z,72.20
2023-05-05T12:02:06.455Z,72.80
2023-05-05T12:04:33.710Z,73.40
2023-05-05T12:07:01.035Z,74.20
2023-05-05T12:09:28.337Z,74.70
2023-05-05T12:11:57.231Z,75.70
2023-05-05T12:14:25.514Z,76.80
2023-05-05T12:17:01.336Z,77.70
2023-05-05T12:19:32.911Z,78.80
2023-05-05T12:22:01.758Z,79.40
2023-05-05T12:24:32.694Z,79.50
2023-05-05T12:27:10.904Z,79.60
2023-05-05T12:29:38.179Z,79.70
2023-05-05T12:32:05.909Z,79.70
2023-05-05T12:34:33.383Z,80.50
2023-05-05T12:37:01.431Z,80.60
2023-05-05T12:39:38.392Z,81.00
2023-05-05T12:42:06.431Z,81.40
2023-05-05T12:44:37.902Z,81.80
2023-05-05T12:47:05.865Z,81.90
2023-05-05T12:49:45.971Z,81.60
2023-05-05T12:52:14.444Z,82.20
2023-05-05T12:54:58.622Z,82.00
2023-05-05T12:57:26.577Z,83.00
2023-05-05T12:59:53.965Z,83.40
2023-05-05T13:02:21.522Z,83.70
2023-05-05T13:04:53.892Z,83.80
2023-05-05T13:07:22.078Z,83.90
2023-05-05T13:09:51.435Z,83.90
2023-05-05T13:12:19.002Z,84.30
2023-05-05T13:14:46.685Z,84.50
2023-05-05T13:17:14.493Z,84.50
2023-05-05T13:19:48.799Z,85.30
2023-05-05T13:22:16.614Z,85.70
2023-05-05T13:25:07.223Z,85.10
2023-05-05T13:27:34.223Z,85.10
2023-05-05T13:30:01.624Z,84.60
2023-05-05T13:32:28.901Z,85.20
2023-05-05T13:34:56.328Z,85.20
2023-05-05T13:37:24.268Z,85.70
2023-05-05T13:39:51.578Z,86.50
2023-05-05T13:42:18.749Z,85.30
2023-05-05T13:44:46.564Z,84.70
2023-05-05T13:47:14.106Z,84.80
2023-05-05T13:49:42.045Z,85.40
2023-05-05T13:52:09.378Z,85.80
2023-05-05T13:54:36.890Z,85.50
2023-05-05T13:57:04.794Z,85.80
2023-05-05T13:59:32.117Z,86.20
2023-05-05T14:02:00.851Z,86.60
2023-05-05T14:04:28.195Z,86.50
2023-05-05T14:06:56.592Z,86.50
2023-05-05T14:09:23.808Z,86.10
2023-05-05T14:11:51.403Z,86.30
2023-05-05T14:14:19.651Z,86.70
2023-05-05T14:16:49.414Z,86.10
2023-05-05T14:19:17.509Z,85.40
2023-05-05T14:21:44.780Z,85.80
2023-05-05T14:24:12.020Z,86.20
2023-05-05T14:26:39.237Z,85.70
2023-05-05T14:29:06.512Z,86.50
2023-05-05T14:31:33.759Z,85.40
2023-05-05T14:34:01.183Z,85.80
2023-05-05T14:36:28.588Z,86.30
2023-05-05T14:38:55.942Z,86.80
2023-05-05T14:41:23.539Z,87.30
2023-05-05T14:43:50.729Z,87.00
2023-05-05T14:46:18.753Z,87.10
2023-05-05T14:48:47.253Z,87.00
2023-05-05T14:51:15.895Z,84.50
2023-05-05T14:53:43.192Z,85.60
2023-05-05T14:56:10.416Z,85.50
2023-05-05T14:58:37.598Z,80.10
2023-05-05T15:01:05.123Z,76.90
2023-05-05T15:03:32.853Z,76.40
2023-05-05T15:06:00.374Z,74.00
2023-05-05T15:08:27.607Z,72.50
2023-05-05T15:10:54.789Z,74.00
2023-05-05T15:13:22.135Z,74.30
2023-05-05T15:15:50.037Z,75.70
2023-05-05T15:18:17.493Z,74.10
2023-05-05T15:20:44.798Z,75.20
2023-05-05T15:23:12.036Z,74.00
2023-05-05T15:25:39.338Z,74.30
2023-05-05T15:28:06.524Z,74.20
2023-05-05T15:30:33.850Z,75.50
2023-05-05T15:33:01.290Z,74.00
2023-05-05T15:35:28.608Z,65.80
2023-05-05T15:37:55.889Z,66.70
2023-05-05T15:40:23.208Z,62.90
2023-05-05T15:42:50.500Z,63.40
2023-05-05T15:45:17.846Z,61.50
2023-05-05T15:47:45.861Z,62.80
2023-05-05T15:50:13.182Z,63.40
2023-05-05T15:52:40.391Z,61.30
2023-05-05T15:55:08.712Z,59.40
2023-05-05T15:57:38.987Z,60.40
2023-05-05T16:00:07.865Z,61.30
2023-05-05T16:02:35.099Z,60.20
2023-05-05T16:05:02.519Z,61.00
2023-05-05T16:07:29.739Z,58.90
2023-05-05T16:09:57.223Z,56.30
2023-05-05T16:12:24.483Z,57.20
2023-05-05T16:14:51.692Z,57.40
2023-05-05T16:17:20.349Z,57.80
2023-05-05T16:19:48.972Z,56.00
2023-05-05T16:22:16.204Z,54.70
2023-05-05T16:24:44.308Z,52.50
2023-05-05T16:27:11.758Z,54.20
2023-05-05T16:29:39.004Z,53.60
2023-05-05T16:32:06.313Z,53.90
2023-05-05T16:34:33.607Z,51.80
2023-05-05T16:37:01.150Z,49.80
2023-05-05T16:39:28.486Z,50.40
2023-05-05T16:41:55.635Z,50.90
2023-05-05T16:44:22.886Z,51.70
2023-05-05T16:46:50.214Z,51.40
2023-05-05T16:49:18.281Z,52.20
2023-05-05T16:51:45.534Z,52.50
2023-05-05T16:54:12.762Z,49.80
2023-05-05T16:56:39.977Z,49.80
2023-05-05T16:59:07.151Z,48.60
2023-05-05T17:01:34.857Z,48.40
2023-05-05T17:04:02.463Z,48.30
2023-05-05T17:06:33.249Z,47.10
2023-05-05T17:09:00.759Z,47.70
2023-05-05T17:11:28.043Z,48.80
2023-05-05T17:13:55.245Z,49.80
2023-05-05T17:16:22.442Z,49.50
2023-05-05T17:18:49.721Z,49.00
2023-05-05T17:21:16.931Z,50.00
2023-05-05T17:23:44.095Z,50.40
2023-05-05T17:26:11.274Z,52.40
2023-05-05T17:28:38.520Z,52.90
2023-05-05T17:31:05.993Z,53.70
2023-05-05T17:33:33.306Z,53.00
2023-05-05T17:36:00.566Z,53.40
2023-05-05T17:38:27.773Z,52.50
2023-05-05T17:40:55.004Z,54.30
2023-05-05T17:43:22.218Z,55.10
2023-05-05T17:45:49.487Z,57.30
2023-05-05T17:48:16.750Z,57.80
2023-05-05T17:50:43.928Z,58.10
2023-05-05T17:53:11.315Z,58.90
2023-05-05T17:55:38.511Z,59.30
2023-05-05T17:58:05.709Z,59.30
2023-05-05T18:00:32.986Z,59.10
2023-05-05T18:03:01.134Z,59.00
2023-05-05T18:05:28.604Z,59.10
2023-05-05T18:07:55.799Z,58.80
2023-05-05T18:10:23.226Z,59.80
2023-05-05T18:12:50.646Z,60.80
2023-05-05T18:15:17.909Z,61.80
2023-05-05T18:17:45.154Z,62.70
2023-05-05T18:20:12.410Z,63.20
2023-05-05T18:22:39.653Z,63.30
2023-05-05T18:25:08.245Z,63.50
2023-05-05T18:27:36.109Z,63.50
2023-05-05T18:30:04.781Z,63.60
2023-05-05T18:32:32.249Z,64.00
2023-05-05T18:34:59.465Z,64.50
2023-05-05T18:37:27.799Z,65.30
2023-05-05T18:39:55.221Z,65.10
2023-05-05T18:42:22.597Z,65.60
2023-05-05T18:44:49.886Z,65.70
2023-05-05T18:47:17.231Z,65.60
2023-05-05T18:49:45.342Z,65.70
2023-05-05T18:52:13.405Z,66.00
2023-05-05T18:54:40.977Z,66.40
2023-05-05T18:57:08.178Z,66.70
2023-05-05T18:59:35.389Z,66.90
2023-05-05T19:02:02.840Z,67.10
2023-05-05T19:07:31.344Z,68.40
2023-05-05T19:10:01.446Z,68.70
2023-05-05T19:12:28.609Z,68.90
2023-05-05T19:14:55.800Z,69.50
2023-05-05T19:17:23.031Z,69.80
2023-05-05T19:19:50.572Z,70.10
2023-05-05T19:22:17.792Z,70.60
2023-05-05T19:24:45.020Z,71.00
2023-05-05T19:27:15.530Z,71.10
2023-05-05T19:29:44.140Z,71.50
2023-05-05T19:32:11.560Z,71.70
2023-05-05T19:34:38.888Z,71.80
2023-05-05T19:37:06.222Z,71.80
2023-05-05T19:39:33.419Z,72.10
2023-05-05T19:42:00.901Z,72.30
2023-05-05T19:44:28.179Z,72.50
2023-05-05T19:46:55.388Z,72.80
2023-05-05T19:49:22.952Z,73.00
2023-05-05T19:51:51.969Z,73.50
2023-05-05T19:54:19.206Z,73.90
2023-05-05T19:56:46.646Z,74.00
2023-05-05T19:59:13.866Z,74.10
2023-05-05T20:01:41.152Z,74.30
2023-05-05T20:04:08.717Z,74.50
2023-05-05T20:06:37.329Z,74.50
2023-05-05T20:09:05.376Z,74.40
2023-05-05T20:11:32.674Z,75.50
2023-05-05T20:14:00.051Z,74.60
2023-05-05T20:16:27.366Z,74.70
2023-05-05T20:18:54.646Z,75.60
2023-05-05T20:21:21.834Z,76.30
2023-05-05T20:23:49.079Z,76.80
2023-05-05T20:26:16.940Z,77.20
2023-05-05T20:28:45.745Z,77.80
2023-05-05T20:31:14.395Z,78.10
2023-05-05T20:33:41.847Z,78.20
2023-05-05T20:36:09.385Z,78.20
2023-05-05T20:38:36.638Z,78.40
2023-05-05T20:41:03.840Z,78.50
2023-05-05T20:43:31.275Z,78.50
2023-05-05T20:45:58.633Z,78.50
2023-05-05T20:48:25.938Z,78.10
2023-05-05T20:50:53.186Z,78.10
2023-05-05T20:53:21.283Z,78.10
2023-05-05T20:55:49.772Z,78.50
2023-05-05T20:58:17.106Z,78.60
2023-05-05T21:00:44.438Z,78.70
2023-05-05T21:03:12.119Z,78.60
2023-05-05T21:05:41.136Z,78.50
2023-05-05T21:08:08.449Z,78.50
2023-05-05T21:10:36.219Z,78.50
2023-05-05T21:13:03.994Z,78.70
2023-05-05T21:15:31.942Z,78.70
2023-05-05T21:17:59.299Z,78.80
2023-05-05T21:20:26.656Z,78.70
2023-05-05T21:22:53.852Z,79.10
2023-05-05T21:25:21.706Z,79.40
2023-05-05T21:27:49.553Z,79.60
2023-05-05T21:30:17.316Z,80.00
2023-05-05T21:32:44.886Z,80.20
2023-05-05T21:35:12.308Z,80.30
2023-05-05T21:37:40.106Z,80.50
2023-05-05T21:40:13.645Z,80.50
2023-05-05T21:42:42.381Z,80.50
2023-05-05T21:45:11.618Z,79.90
2023-05-05T21:47:39.134Z,80.30
2023-05-05T21:50:07.279Z,80.20
2023-05-05T21:52:34.714Z,80.30
2023-05-05T21:55:02.111Z,80.40
2023-05-05T21:57:29.380Z,80.30
2023-05-05T21:59:56.584Z,80.10
2023-05-05T22:02:23.902Z,79.80
2023-05-05T22:04:51.751Z,79.80
2023-05-05T22:07:19.155Z,80.00
2023-05-05T22:09:46.489Z,80.00
2023-05-05T22:12:13.782Z,80.10
2023-05-05T22:14:40.955Z,79.80
2023-05-05T22:17:08.204Z,79.80
2023-05-05T22:19:36.350Z,80.00
2023-05-05T22:22:03.588Z,80.30
2023-05-05T22:24:31.016Z,80.30
2023-05-05T22:26:58.440Z,80.90
2023-05-05T22:29:25.704Z,80.70
2023-05-05T22:31:53.265Z,80.90
2023-05-05T22:34:21.768Z,81.00
2023-05-05T22:36:49.538Z,81.30
2023-05-05T22:39:18.396Z,80.90
2023-05-05T22:41:46.085Z,80.80
2023-05-05T22:44:13.355Z,80.70
2023-05-05T22:46:40.921Z,79.90
2023-05-05T22:49:08.802Z,80.70
2023-05-05T22:51:36.147Z,80.80
2023-05-05T22:54:03.601Z,80.50
2023-05-05T22:56:30.866Z,80.40
2023-05-05T22:58:58.127Z,80.80
2023-05-05T23:01:25.824Z,80.60
2023-05-05T23:03:53.268Z,80.60
2023-05-05T23:06:20.839Z,80.70
2023-05-05T23:08:49.167Z,80.70
2023-05-05T23:11:16.786Z,80.60
2023-05-05T23:13:44.092Z,80.30
2023-05-05T23:16:11.819Z,80.30
2023-05-05T23:18:39.168Z,80.50
2023-05-05T23:21:06.518Z,80.60
2023-05-05T23:23:33.811Z,80.50
2023-05-05T23:26:01.289Z,80.40
2023-05-05T23:28:28.584Z,80.30
2023-05-05T23:30:55.945Z,80.50
2023-05-05T23:33:23.348Z,80.60
2023-05-05T23:35:50.895Z,80.80
2023-05-05T23:38:18.271Z,80.90
2023-05-05T23:40:45.557Z,81.10
2023-05-05T23:43:12.867Z,82.30
2023-05-05T23:45:40.405Z,81.40
2023-05-05T23:48:07.713Z,81.70
2023-05-05T23:50:35.007Z,82.00
2023-05-05T23:53:02.289Z,82.10
2023-05-05T23:55:30.053Z,82.00
2023-05-05T23:57:57.371Z,82.30
